createdAt,value
2022-12-11T00:00:12.141Z,-2.49
2022-12-11T00:02:38.965Z,-2.53
2022-12-11T00:05:06.179Z,-2.49
2022-12-11T00:07:32.948Z,-2.43
2022-12-11T00:09:59.839Z,-2.42
2022-12-11T00:12:26.610Z,-2.48
2022-12-11T00:14:53.441Z,-2.45
2022-12-11T00:17:20.163Z,-2.55
2022-12-11T00:19:46.934Z,-2.68
2022-12-11T00:22:13.682Z,-2.60
2022-12-11T00:24:40.480Z,-2.62
2022-12-11T00:27:08.037Z,-2.64
2022-12-11T00:29:34.840Z,-2.73
2022-12-11T00:32:01.838Z,-2.80
2022-12-11T00:34:28.728Z,-2.78
2022-12-11T00:36:55.522Z,-2.79
2022-12-11T00:39:22.265Z,-2.91
2022-12-11T00:41:48.997Z,-3.09
2022-12-11T00:44:15.757Z,-3.06
2022-12-11T00:46:42.609Z,-3.19
2022-12-11T00:49:09.430Z,-3.17
2022-12-11T00:51:36.209Z,-3.24
2022-12-11T00:54:04.167Z,-3.27
2022-12-11T00:56:30.942Z,-3.45
2022-12-11T00:58:57.738Z,-3.40
2022-12-11T01:01:25.763Z,-3.51
2022-12-11T01:03:53.601Z,-3.60
2022-12-11T01:06:24.465Z,-3.74
2022-12-11T01:09:10.344Z,-3.69
2022-12-11T01:11:37.690Z,-3.70
2022-12-11T01:14:05.528Z,-3.74
2022-12-11T01:16:32.488Z,-3.97
2022-12-11T01:19:00.283Z,-4.01
2022-12-11T01:21:27.085Z,-4.08
2022-12-11T01:23:53.830Z,-4.11
2022-12-11T01:26:20.697Z,-4.12
2022-12-11T01:28:51.373Z,-4.17
2022-12-11T01:31:20.154Z,-4.14
2022-12-11T01:33:47.004Z,-4.24
2022-12-11T01:36:20.050Z,-4.30
2022-12-11T01:38:48.966Z,-4.43
2022-12-11T01:41:17.965Z,-4.47
2022-12-11T01:44:05.119Z,-4.56
2022-12-11T01:46:34.874Z,-4.76
2022-12-11T01:49:06.590Z,-4.81
2022-12-11T01:51:40.153Z,-4.92
2022-12-11T01:54:12.011Z,-5.10
2022-12-11T01:56:42.150Z,-5.11
2022-12-11T01:59:10.538Z,-5.10
2022-12-11T02:01:51.250Z,-5.22
2022-12-11T02:04:20.060Z,-5.36
2022-12-11T02:06:50.996Z,-5.34
2022-12-11T02:09:24.091Z,-5.29
2022-12-11T02:12:20.976Z,-5.38
2022-12-11T02:15:15.191Z,-5.50
2022-12-11T02:18:09.155Z,-5.65
2022-12-11T02:20:49.389Z,-5.67
2022-12-11T02:23:49.526Z,-5.75
2022-12-11T02:26:59.701Z,-5.75
2022-12-11T02:29:37.191Z,-5.85
2022-12-11T02:32:30.582Z,-5.94
2022-12-11T02:35:25.006Z,-5.99
2022-12-11T02:37:59.890Z,-6.03
2022-12-11T02:40:31.604Z,-6.02
2022-12-11T02:43:02.835Z,-6.19
2022-12-11T02:45:31.388Z,-6.24
2022-12-11T02:48:00.183Z,-6.30
2022-12-11T02:50:28.155Z,-6.48
2022-12-11T02:52:57.015Z,-6.43
2022-12-11T02:55:27.307Z,-6.53
2022-12-11T02:58:13.841Z,-7.13
2022-12-11T03:00:40.900Z,-6.91
2022-12-11T03:03:07.959Z,-6.86
2022-12-11T03:05:35.461Z,-6.87
2022-12-11T03:08:02.807Z,-6.94
2022-12-11T03:10:29.575Z,-7.09
2022-12-11T03:12:59.159Z,-7.11
2022-12-11T03:15:57.734Z,-7.11
2022-12-11T03:18:47.243Z,-7.21
2022-12-11T03:21:40.755Z,-7.15
2022-12-11T03:24:35.082Z,-7.13
2022-12-11T03:27:18.071Z,-7.26
2022-12-11T03:29:59.129Z,-7.26
2022-12-11T03:32:45.020Z,-7.25
2022-12-11T03:35:24.647Z,-7.28
2022-12-11T03:37:53.590Z,-7.35
2022-12-11T03:40:22.885Z,-7.48
2022-12-11T03:42:52.935Z,-7.82
2022-12-11T03:45:22.178Z,-7.66
2022-12-11T03:47:52.542Z,-7.68
2022-12-11T03:50:22.196Z,-7.67
2022-12-11T03:52:50.630Z,-7.71
2022-12-11T03:55:19.453Z,-7.68
2022-12-11T03:57:46.247Z,-7.71
2022-12-11T04:00:18.965Z,-7.53
2022-12-11T04:03:11.336Z,-7.56
2022-12-11T04:05:52.353Z,-7.66
2022-12-11T04:08:21.366Z,-7.64
2022-12-11T04:11:09.866Z,-7.60
2022-12-11T04:13:37.540Z,-7.60
2022-12-11T04:16:04.521Z,-7.54
2022-12-11T04:18:49.998Z,-7.68
2022-12-11T04:21:39.408Z,-7.57
2022-12-11T04:24:17.125Z,-7.57
2022-12-11T04:26:46.091Z,-7.50
2022-12-11T04:29:14.618Z,-7.52
2022-12-11T04:31:41.545Z,-7.60
2022-12-11T04:34:08.343Z,-7.67
2022-12-11T04:36:35.872Z,-7.59
2022-12-11T04:39:04.307Z,-7.69
2022-12-11T04:41:31.325Z,-7.58
2022-12-11T04:43:58.157Z,-7.49
2022-12-11T04:46:25.819Z,-7.50
2022-12-11T04:48:57.252Z,-7.46
2022-12-11T04:51:25.463Z,-7.42
2022-12-11T04:53:52.296Z,-7.41
2022-12-11T04:56:19.242Z,-7.43
2022-12-11T04:58:48.488Z,-7.49
2022-12-11T05:01:21.341Z,-7.27
2022-12-11T05:03:49.142Z,-7.36
2022-12-11T05:06:16.325Z,-7.36
2022-12-11T05:08:44.025Z,-7.28
2022-12-11T05:11:14.053Z,-7.31
2022-12-11T05:13:41.266Z,-7.56
2022-12-11T05:16:10.855Z,-7.67
2022-12-11T05:18:37.700Z,-7.61
2022-12-11T05:21:08.602Z,-7.54
2022-12-11T05:23:36.039Z,-7.60
2022-12-11T05:26:11.346Z,-7.64
2022-12-11T05:28:39.567Z,-7.55
2022-12-11T05:31:20.755Z,-7.67
2022-12-11T05:33:50.301Z,-7.63
2022-12-11T05:36:31.868Z,-7.69
2022-12-11T05:39:00.878Z,-7.75
2022-12-11T05:41:30.049Z,-7.77
2022-12-11T05:43:56.957Z,-7.83
2022-12-11T05:46:27.738Z,-8.03
2022-12-11T05:48:58.342Z,-8.15
2022-12-11T05:51:25.340Z,-8.34
2022-12-11T05:53:53.860Z,-8.27
2022-12-11T05:56:26.473Z,-8.13
2022-12-11T05:58:54.012Z,-8.13
2022-12-11T06:01:28.435Z,-8.14
2022-12-11T06:03:56.646Z,-8.27
2022-12-11T06:06:24.414Z,-8.35
2022-12-11T06:08:56.478Z,-8.41
2022-12-11T06:11:24.757Z,-8.45
2022-12-11T06:13:52.774Z,-8.49
2022-12-11T06:16:20.499Z,-8.53
2022-12-11T06:18:47.594Z,-8.53
2022-12-11T06:21:20.135Z,-8.54
2022-12-11T06:23:51.333Z,-8.55
2022-12-11T06:26:19.259Z,-8.64
2022-12-11T06:28:47.289Z,-8.49
2022-12-11T06:31:15.677Z,-8.50
2022-12-11T06:33:43.000Z,-8.61
2022-12-11T06:36:14.338Z,-8.52
2022-12-11T06:38:41.222Z,-8.55
2022-12-11T06:41:08.972Z,-8.67
2022-12-11T06:43:38.576Z,-8.58
2022-12-11T06:46:14.433Z,-8.76
2022-12-11T06:48:42.695Z,-8.69
2022-12-11T06:51:18.687Z,-8.57
2022-12-11T06:53:51.432Z,-8.74
2022-12-11T06:56:18.224Z,-8.76
2022-12-11T06:58:45.023Z,-8.67
2022-12-11T07:01:25.655Z,-8.66
2022-12-11T07:03:59.392Z,-8.60
2022-12-11T07:06:28.437Z,-8.67
2022-12-11T07:08:55.677Z,-8.78
2022-12-11T07:11:22.963Z,-8.71
2022-12-11T07:13:49.791Z,-8.75
2022-12-11T07:16:18.440Z,-8.75
2022-12-11T07:18:49.744Z,-8.82
2022-12-11T07:21:17.166Z,-8.73
2022-12-11T07:23:44.225Z,-8.81
2022-12-11T07:26:15.070Z,-8.93
2022-12-11T07:28:42.607Z,-8.87
2022-12-11T07:31:16.214Z,-8.95
2022-12-11T07:33:43.921Z,-9.02
2022-12-11T07:36:12.933Z,-8.97
2022-12-11T07:38:40.374Z,-8.95
2022-12-11T07:41:11.363Z,-9.01
2022-12-11T07:43:38.384Z,-9.13
2022-12-11T07:46:13.307Z,-8.94
2022-12-11T07:48:42.309Z,-9.01
2022-12-11T07:51:25.149Z,-9.06
2022-12-11T07:53:57.503Z,-9.12
2022-12-11T07:56:24.957Z,-9.29
2022-12-11T07:58:51.820Z,-9.26
2022-12-11T08:01:23.734Z,-9.17
2022-12-11T08:03:51.002Z,-9.17
2022-12-11T08:06:18.545Z,-9.17
2022-12-11T08:08:47.515Z,-9.27
2022-12-11T08:11:15.405Z,-9.18
2022-12-11T08:13:43.397Z,-9.22
2022-12-11T08:16:14.064Z,-9.08
2022-12-11T08:18:43.139Z,-9.07
2022-12-11T08:21:13.757Z,-9.09
2022-12-11T08:23:41.107Z,-8.93
2022-12-11T08:26:17.204Z,-8.85
2022-12-11T08:28:44.762Z,-8.89
2022-12-11T08:31:17.472Z,-8.74
2022-12-11T08:33:44.791Z,-8.75
2022-12-11T08:36:15.205Z,-8.56
2022-12-11T08:38:42.351Z,-8.65
2022-12-11T08:41:15.189Z,-8.37
2022-12-11T08:43:42.207Z,-8.36
2022-12-11T08:46:10.157Z,-8.05
2022-12-11T08:48:38.999Z,-7.88
2022-12-11T08:51:10.888Z,-7.73
2022-12-11T08:53:39.740Z,-7.74
2022-12-11T08:56:13.327Z,-7.46
2022-12-11T08:58:40.280Z,-7.00
2022-12-11T09:01:13.450Z,-6.75
2022-12-11T09:03:41.135Z,-6.61
2022-12-11T09:06:14.812Z,-6.52
2022-12-11T09:08:45.996Z,-6.48
2022-12-11T09:11:24.145Z,-6.28
2022-12-11T09:13:51.309Z,-6.31
2022-12-11T09:16:20.888Z,-6.11
2022-12-11T09:18:49.952Z,-6.05
2022-12-11T09:21:20.952Z,-5.89
2022-12-11T09:23:48.076Z,-5.79
2022-12-11T09:26:18.210Z,-5.80
2022-12-11T09:28:47.015Z,-5.30
2022-12-11T09:31:23.627Z,-4.85
2022-12-11T09:33:52.200Z,-4.84
2022-12-11T09:36:19.685Z,-4.82
2022-12-11T09:38:47.241Z,-4.81
2022-12-11T09:41:23.071Z,-4.72
2022-12-11T09:44:26.906Z,-4.65
2022-12-11T09:46:53.790Z,-4.68
2022-12-11T09:49:32.363Z,-4.69
2022-12-11T09:52:08.983Z,-4.67
2022-12-11T09:54:35.865Z,-4.58
2022-12-11T09:57:18.367Z,-4.37
2022-12-11T10:00:13.875Z,-4.27
2022-12-11T10:02:57.731Z,-4.09
2022-12-11T10:05:52.706Z,-3.97
2022-12-11T10:08:37.026Z,-3.90
2022-12-11T10:11:42.192Z,-3.80
2022-12-11T10:14:42.338Z,-3.69
2022-12-11T10:17:28.804Z,-3.63
2022-12-11T10:19:58.294Z,-3.47
2022-12-11T10:22:30.506Z,-3.39
2022-12-11T10:25:16.797Z,-3.44
2022-12-11T10:27:44.805Z,-3.22
2022-12-11T10:30:20.163Z,-3.10
2022-12-11T10:33:02.031Z,-2.92
2022-12-11T10:35:36.970Z,-2.81
2022-12-11T10:38:17.421Z,-2.78
2022-12-11T10:40:55.618Z,-2.90
2022-12-11T10:43:46.296Z,-2.66
2022-12-11T10:46:26.300Z,-2.53
2022-12-11T10:48:59.865Z,-2.38
2022-12-11T10:51:32.371Z,-2.28
2022-12-11T10:54:36.891Z,-2.18
2022-12-11T10:57:06.497Z,-2.07
2022-12-11T10:59:49.742Z,-1.97
2022-12-11T11:02:33.579Z,-1.89
2022-12-11T11:05:15.371Z,-1.70
2022-12-11T11:07:42.707Z,-1.77
2022-12-11T11:10:12.390Z,-1.51
2022-12-11T11:12:47.594Z,-1.44
2022-12-11T11:15:27.958Z,-1.48
2022-12-11T11:17:57.783Z,-1.36
2022-12-11T11:20:28.149Z,-1.20
2022-12-11T11:23:05.236Z,-1.16
2022-12-11T11:25:33.370Z,-0.98
2022-12-11T11:28:07.089Z,-0.92
2022-12-11T11:30:42.236Z,-0.96
2022-12-11T11:33:20.531Z,-0.76
2022-12-11T11:36:07.086Z,-0.64
2022-12-11T11:38:48.011Z,-0.36
2022-12-11T11:41:29.042Z,-0.23
2022-12-11T11:44:07.162Z,-0.05
2022-12-11T11:46:51.207Z,0.04
2022-12-11T11:49:37.596Z,0.10
2022-12-11T11:52:18.005Z,0.21
2022-12-11T11:55:10.273Z,0.44
2022-12-11T11:57:51.187Z,0.62
2022-12-11T12:00:28.876Z,0.76
2022-12-11T12:03:10.495Z,1.06
2022-12-11T12:05:46.707Z,1.29
2022-12-11T12:08:25.798Z,1.49
2022-12-11T12:11:14.438Z,1.67
2022-12-11T12:14:43.686Z,2.00
2022-12-11T12:17:44.829Z,1.86
2022-12-11T12:20:33.263Z,1.73
2022-12-11T12:23:40.840Z,1.69
2022-12-11T12:26:34.508Z,1.46
2022-12-11T12:29:25.553Z,1.13
2022-12-11T12:32:36.989Z,1.13
2022-12-11T12:35:36.275Z,1.09
2022-12-11T12:38:26.929Z,1.01
2022-12-11T12:41:27.665Z,1.06
2022-12-11T12:44:10.295Z,1.03
2022-12-11T12:46:54.193Z,0.95
2022-12-11T12:49:40.959Z,0.95
2022-12-11T12:52:19.736Z,0.78
2022-12-11T12:55:10.962Z,0.70
2022-12-11T12:57:40.360Z,0.80
2022-12-11T13:00:13.516Z,0.78
2022-12-11T13:02:53.880Z,0.82
2022-12-11T13:05:28.404Z,0.76
2022-12-11T13:08:00.222Z,0.84
2022-12-11T13:10:43.126Z,0.72
2022-12-11T13:13:37.769Z,0.69
2022-12-11T13:16:25.236Z,0.60
2022-12-11T13:18:52.428Z,0.43
2022-12-11T13:21:36.516Z,0.49
2022-12-11T13:24:28.487Z,0.46
2022-12-11T13:26:55.945Z,0.41
2022-12-11T13:29:41.539Z,0.46
2022-12-11T13:32:08.201Z,0.51
2022-12-11T13:34:43.001Z,0.55
2022-12-11T13:37:33.264Z,0.65
2022-12-11T13:40:06.918Z,0.56
2022-12-11T13:42:39.381Z,0.64
2022-12-11T13:45:08.317Z,0.62
2022-12-11T13:47:36.561Z,0.35
2022-12-11T13:50:21.346Z,0.60
2022-12-11T13:52:59.609Z,0.53
2022-12-11T13:55:35.230Z,0.56
2022-12-11T13:58:02.053Z,0.51
2022-12-11T14:00:34.801Z,0.46
2022-12-11T14:03:07.525Z,0.42
2022-12-11T14:05:35.519Z,0.50
2022-12-11T14:08:10.209Z,0.47
2022-12-11T14:10:37.603Z,0.44
2022-12-11T14:13:12.341Z,0.39
2022-12-11T14:15:44.778Z,0.42
2022-12-11T14:18:26.971Z,0.37
2022-12-11T14:21:02.162Z,0.37
2022-12-11T14:23:35.458Z,0.34
2022-12-11T14:26:16.989Z,0.28
2022-12-11T14:28:44.100Z,0.17
2022-12-11T14:31:18.521Z,0.18
2022-12-11T14:33:52.182Z,0.12
2022-12-11T14:36:19.807Z,0.14
2022-12-11T14:39:05.048Z,-0.03
2022-12-11T14:41:46.290Z,-0.02
2022-12-11T14:44:16.993Z,-0.04
2022-12-11T14:46:50.117Z,-0.11
2022-12-11T14:49:25.246Z,-0.06
2022-12-11T14:51:55.348Z,-0.16
2022-12-11T14:54:39.761Z,-0.19
2022-12-11T14:57:07.885Z,-0.22
2022-12-11T14:59:44.825Z,-0.17
2022-12-11T15:02:29.771Z,-0.23
2022-12-11T15:05:14.520Z,-0.32
2022-12-11T15:07:59.959Z,-0.31
2022-12-11T15:10:36.952Z,-0.36
2022-12-11T15:13:06.981Z,-0.52
2022-12-11T15:15:44.704Z,-0.45
2022-12-11T15:18:22.811Z,-0.55
2022-12-11T15:20:55.780Z,-0.47
2022-12-11T15:23:22.782Z,-0.48
2022-12-11T15:25:57.034Z,-0.62
2022-12-11T15:28:36.872Z,-0.58
2022-12-11T15:31:42.321Z,-0.62
2022-12-11T15:34:24.021Z,-0.66
2022-12-11T15:36:50.879Z,-0.77
2022-12-11T15:39:17.635Z,-0.73
2022-12-11T15:41:44.458Z,-0.74
2022-12-11T15:44:20.644Z,-0.71
2022-12-11T15:46:47.514Z,-0.76
2022-12-11T15:49:15.215Z,-0.82
2022-12-11T15:51:43.342Z,-0.85
2022-12-11T15:54:10.583Z,-0.91
2022-12-11T15:56:37.405Z,-0.86
2022-12-11T15:59:06.907Z,-0.93
2022-12-11T16:01:34.555Z,-0.97
2022-12-11T16:04:04.961Z,-0.90
2022-12-11T16:06:33.232Z,-1.07
2022-12-11T16:08:59.977Z,-1.01
2022-12-11T16:11:26.793Z,-1.05
2022-12-11T16:13:53.526Z,-1.01
2022-12-11T16:16:20.399Z,-1.13
2022-12-11T16:18:47.137Z,-1.17
2022-12-11T16:21:18.316Z,-1.09
2022-12-11T16:23:48.336Z,-1.16
2022-12-11T16:26:15.864Z,-1.18
2022-12-11T16:28:43.462Z,-1.09
2022-12-11T16:31:12.444Z,-1.20
2022-12-11T16:33:39.975Z,-1.25
2022-12-11T16:36:19.085Z,-1.33
2022-12-11T16:38:53.245Z,-1.32
2022-12-11T16:41:21.385Z,-1.32
2022-12-11T16:43:48.166Z,-1.29
2022-12-11T16:46:24.731Z,-1.28
2022-12-11T16:48:51.677Z,-1.29
2022-12-11T16:51:18.586Z,-1.40
2022-12-11T16:53:46.278Z,-1.36
2022-12-11T16:56:13.218Z,-1.42
2022-12-11T16:58:40.801Z,-1.40
2022-12-11T17:01:15.905Z,-1.47
2022-12-11T17:03:43.801Z,-1.52
2022-12-11T17:06:14.132Z,-1.55
2022-12-11T17:08:42.796Z,-1.52
2022-12-11T17:11:13.976Z,-1.61
2022-12-11T17:13:42.196Z,-1.46
2022-12-11T17:16:16.120Z,-1.48
2022-12-11T17:18:43.642Z,-1.51
2022-12-11T17:21:16.058Z,-1.46
2022-12-11T17:23:43.227Z,-1.51
2022-12-11T17:26:10.126Z,-1.53
2022-12-11T17:28:38.173Z,-1.55
2022-12-11T17:31:18.062Z,-1.47
2022-12-11T17:33:46.557Z,-1.45
2022-12-11T17:36:18.758Z,-1.48
2022-12-11T17:38:46.059Z,-1.56
2022-12-11T17:41:20.368Z,-1.57
2022-12-11T17:43:49.958Z,-1.61
2022-12-11T17:46:18.232Z,-1.69
2022-12-11T17:48:45.209Z,-1.71
2022-12-11T17:51:14.309Z,-1.74
2022-12-11T17:53:41.084Z,-1.74
2022-12-11T17:56:08.657Z,-1.80
2022-12-11T17:58:35.871Z,-1.77
2022-12-11T18:01:08.194Z,-1.76
2022-12-11T18:03:36.349Z,-1.82
2022-12-11T18:06:11.850Z,-1.81
2022-12-11T18:08:39.681Z,-1.89
2022-12-11T18:11:10.527Z,-1.92
2022-12-11T18:13:37.400Z,-1.94
2022-12-11T18:16:12.288Z,-1.89
2022-12-11T18:18:39.585Z,-1.94
2022-12-11T18:21:06.795Z,-1.94
2022-12-11T18:23:34.134Z,-1.97
2022-12-11T18:26:00.871Z,-1.95
2022-12-11T18:28:27.675Z,-1.94
2022-12-11T18:30:54.487Z,-2.04
2022-12-11T18:33:21.246Z,-2.12
2022-12-11T18:35:50.421Z,-2.05
2022-12-11T18:38:17.314Z,-2.03
2022-12-11T18:40:44.046Z,-2.16
2022-12-11T18:43:11.255Z,-2.17
2022-12-11T18:45:42.000Z,-2.31
2022-12-11T18:48:09.727Z,-2.26
2022-12-11T18:50:36.935Z,-2.15
2022-12-11T18:53:04.448Z,-2.18
2022-12-11T18:55:31.158Z,-2.17
2022-12-11T18:58:00.922Z,-2.19
2022-12-11T19:00:28.723Z,-2.12
2022-12-11T19:02:55.538Z,-2.09
2022-12-11T19:05:22.281Z,-2.10
2022-12-11T19:07:49.033Z,-2.11
2022-12-11T19:10:15.901Z,-2.15
2022-12-11T19:12:43.046Z,-2.18
2022-12-11T19:15:11.144Z,-2.14
2022-12-11T19:17:38.676Z,-2.16
2022-12-11T19:20:39.843Z,-2.15
2022-12-11T19:22:55.229Z,-2.14
2022-12-11T19:25:21.974Z,-2.20
2022-12-11T19:27:50.220Z,-2.22
2022-12-11T19:30:17.063Z,-2.28
2022-12-11T19:32:43.813Z,-2.26
2022-12-11T19:35:11.064Z,-2.26
2022-12-11T19:37:38.086Z,-2.45
2022-12-11T19:40:05.741Z,-2.37
2022-12-11T19:42:32.464Z,-2.43
2022-12-11T19:44:59.220Z,-2.46
2022-12-11T19:47:25.971Z,-2.62
2022-12-11T19:49:52.723Z,-2.65
2022-12-11T19:52:19.669Z,-2.66
2022-12-11T19:54:46.434Z,-2.77
2022-12-11T19:57:13.822Z,-2.90
2022-12-11T19:59:41.468Z,-2.94
2022-12-11T20:02:09.717Z,-2.88
2022-12-11T20:04:36.505Z,-2.95
2022-12-11T20:07:04.455Z,-2.98
2022-12-11T20:09:33.421Z,-3.11
2022-12-11T20:12:00.173Z,-3.25
2022-12-11T20:14:27.031Z,-3.29
2022-12-11T20:17:13.749Z,-3.45
2022-12-11T20:19:41.124Z,-3.51
2022-12-11T20:22:09.355Z,-3.60
2022-12-11T20:24:36.206Z,-3.69
2022-12-11T20:27:03.455Z,-3.74
2022-12-11T20:29:30.298Z,-3.87
2022-12-11T20:31:59.630Z,-4.07
2022-12-11T20:34:27.381Z,-4.03
2022-12-11T20:36:54.690Z,-4.13
2022-12-11T20:39:21.493Z,-4.14
2022-12-11T20:41:48.291Z,-4.25
2022-12-11T20:44:15.159Z,-4.32
2022-12-11T20:46:41.885Z,-4.44
2022-12-11T20:49:12.945Z,-4.45
2022-12-11T20:51:40.544Z,-4.61
2022-12-11T20:54:07.518Z,-4.69
2022-12-11T20:56:34.302Z,-4.73
2022-12-11T20:59:01.310Z,-4.94
2022-12-11T21:01:32.285Z,-4.88
2022-12-11T21:04:00.573Z,-4.93
2022-12-11T21:06:33.786Z,-5.16
2022-12-11T21:09:04.749Z,-5.19
2022-12-11T21:11:31.521Z,-5.36
2022-12-11T21:13:58.541Z,-5.41
2022-12-11T21:16:25.959Z,-5.42
2022-12-11T21:18:52.782Z,-5.57
2022-12-11T21:21:19.567Z,-5.62
2022-12-11T21:23:46.320Z,-5.68
2022-12-11T21:26:13.886Z,-5.68
2022-12-11T21:28:40.873Z,-5.89
2022-12-11T21:31:12.590Z,-5.89
2022-12-11T21:33:39.467Z,-5.94
2022-12-11T21:36:07.448Z,-6.02
2022-12-11T21:38:34.186Z,-6.09
2022-12-11T21:41:14.682Z,-6.10
2022-12-11T21:44:14.591Z,-6.10
2022-12-11T21:46:30.394Z,-6.12
2022-12-11T21:48:57.149Z,-6.11
2022-12-11T21:51:37.189Z,-6.17
2022-12-11T21:54:07.285Z,-6.36
2022-12-11T21:56:34.148Z,-6.42
2022-12-11T21:59:01.757Z,-6.37
2022-12-11T22:01:38.897Z,-6.28
2022-12-11T22:04:06.028Z,-6.33
2022-12-11T22:06:33.377Z,-6.50
2022-12-11T22:09:00.333Z,-6.72
2022-12-11T22:11:31.232Z,-6.85
2022-12-11T22:13:58.500Z,-7.01
2022-12-11T22:16:25.704Z,-6.96
2022-12-11T22:18:52.529Z,-7.03
2022-12-11T22:21:19.390Z,-7.12
2022-12-11T22:23:46.607Z,-7.37
2022-12-11T22:26:20.740Z,-7.40
2022-12-11T22:28:48.226Z,-7.48
2022-12-11T22:31:17.731Z,-7.48
2022-12-11T22:33:44.516Z,-7.62
2022-12-11T22:36:12.204Z,-7.52
2022-12-11T22:38:39.653Z,-7.57
2022-12-11T22:41:32.199Z,-7.73
2022-12-11T22:43:59.895Z,-7.90
2022-12-11T22:46:29.872Z,-7.78
2022-12-11T22:48:58.486Z,-7.86
2022-12-11T22:51:25.383Z,-7.92
2022-12-11T22:53:53.443Z,-7.85
2022-12-11T22:56:20.270Z,-7.90
2022-12-11T22:58:47.484Z,-7.91
2022-12-11T23:01:20.095Z,-8.01
2022-12-11T23:03:47.181Z,-8.15
2022-12-11T23:06:17.884Z,-8.09
2022-12-11T23:08:44.863Z,-8.23
2022-12-11T23:11:35.022Z,-8.28
2022-12-11T23:14:02.184Z,-8.38
2022-12-11T23:16:29.033Z,-8.34
2022-12-11T23:18:57.411Z,-8.29
2022-12-11T23:21:26.476Z,-8.14
2022-12-11T23:23:53.775Z,-8.21
2022-12-11T23:26:21.275Z,-8.22
2022-12-11T23:28:48.424Z,-8.26
2022-12-11T23:31:16.314Z,-8.47
2022-12-11T23:33:43.267Z,-8.55
2022-12-11T23:36:10.458Z,-8.63
2022-12-11T23:38:37.630Z,-8.74
2022-12-11T23:41:08.206Z,-8.90
2022-12-11T23:43:37.517Z,-9.02
2022-12-11T23:46:18.318Z,-9.01
2022-12-11T23:48:45.305Z,-9.06
2022-12-11T23:51:15.364Z,-9.12
2022-12-11T23:53:42.204Z,-9.24
2022-12-11T23:56:14.324Z,-9.37
2022-12-11T23:58:41.761Z,-9.12
